sensor_id;sensor_type;location;lat;lon;timestamp;temperature;humidity
68450;SHT30;55434;39.570;2.652;2022-09-09T00:04:00;26.22;75.03
68450;SHT30;55434;39.570;2.652;2022-09-09T00:06:32;26.18;75.12
68450;SHT30;55434;39.570;2.652;2022-09-09T00:09:10;26.22;75.02
68450;SHT30;55434;39.570;2.652;2022-09-09T00:11:48;26.28;74.72
68450;SHT30;55434;39.570;2.652;2022-09-09T00:14:23;26.41;74.45
68450;SHT30;55434;39.570;2.652;2022-09-09T00:17:01;26.53;73.96
68450;SHT30;55434;39.570;2.652;2022-09-09T00:19:46;26.42;74.15
68450;SHT30;55434;39.570;2.652;2022-09-09T00:22:18;26.34;74.54
68450;SHT30;55434;39.570;2.652;2022-09-09T00:24:54;26.31;74.58
68450;SHT30;55434;39.570;2.652;2022-09-09T00:30:16;26.26;74.90
68450;SHT30;55434;39.570;2.652;2022-09-09T00:32:46;26.31;74.73
68450;SHT30;55434;39.570;2.652;2022-09-09T00:35:17;26.39;74.60
68450;SHT30;55434;39.570;2.652;2022-09-09T00:37:46;26.38;74.73
68450;SHT30;55434;39.570;2.652;2022-09-09T00:40:35;26.38;74.75
68450;SHT30;55434;39.570;2.652;2022-09-09T00:51:34;26.35;74.98
68450;SHT30;55434;39.570;2.652;2022-09-09T00:54:24;26.25;75.22
68450;SHT30;55434;39.570;2.652;2022-09-09T01:00:16;26.11;75.31
68450;SHT30;55434;39.570;2.652;2022-09-09T01:05:33;26.08;75.42
68450;SHT30;55434;39.570;2.652;2022-09-09T01:08:02;26.02;75.39
68450;SHT30;55434;39.570;2.652;2022-09-09T01:10:49;25.97;75.41
68450;SHT30;55434;39.570;2.652;2022-09-09T01:13:30;25.97;75.56
68450;SHT30;55434;39.570;2.652;2022-09-09T01:16:00;25.94;75.49
68450;SHT30;55434;39.570;2.652;2022-09-09T01:18:52;25.97;75.68
68450;SHT30;55434;39.570;2.652;2022-09-09T01:21:32;25.95;75.49
68450;SHT30;55434;39.570;2.652;2022-09-09T01:24:05;26.11;75.25
68450;SHT30;55434;39.570;2.652;2022-09-09T01:26:44;26.08;74.95
68450;SHT30;55434;39.570;2.652;2022-09-09T01:29:15;26.00;75.18
68450;SHT30;55434;39.570;2.652;2022-09-09T01:34:25;25.81;75.62
68450;SHT30;55434;39.570;2.652;2022-09-09T01:39:21;25.66;76.13
68450;SHT30;55434;39.570;2.652;2022-09-09T01:41:47;25.67;76.24
68450;SHT30;55434;39.570;2.652;2022-09-09T01:44:13;25.61;76.44
68450;SHT30;55434;39.570;2.652;2022-09-09T01:46:38;25.61;76.29
68450;SHT30;55434;39.570;2.652;2022-09-09T01:49:06;25.51;76.54
68450;SHT30;55434;39.570;2.652;2022-09-09T01:51:34;25.40;76.78
68450;SHT30;55434;39.570;2.652;2022-09-09T01:54:00;25.32;77.20
68450;SHT30;55434;39.570;2.652;2022-09-09T02:02:10;25.16;77.98
68450;SHT30;55434;39.570;2.652;2022-09-09T02:04:47;25.10;78.15
68450;SHT30;55434;39.570;2.652;2022-09-09T02:10:09;25.15;77.88
68450;SHT30;55434;39.570;2.652;2022-09-09T02:12:40;25.22;77.85
68450;SHT30;55434;39.570;2.652;2022-09-09T02:15:24;25.19;77.58
68450;SHT30;55434;39.570;2.652;2022-09-09T02:17:59;25.23;77.54
68450;SHT30;55434;39.570;2.652;2022-09-09T02:20:29;25.43;76.94
68450;SHT30;55434;39.570;2.652;2022-09-09T02:23:01;25.42;76.78
68450;SHT30;55434;39.570;2.652;2022-09-09T02:25:29;25.23;77.36
68450;SHT30;55434;39.570;2.652;2022-09-09T02:27:57;25.23;77.46
68450;SHT30;55434;39.570;2.652;2022-09-09T02:30:28;25.23;77.63
68450;SHT30;55434;39.570;2.652;2022-09-09T02:32:57;25.18;77.77
68450;SHT30;55434;39.570;2.652;2022-09-09T02:35:24;25.13;77.87
68450;SHT30;55434;39.570;2.652;2022-09-09T02:37:53;25.03;78.28
68450;SHT30;55434;39.570;2.652;2022-09-09T02:40:20;24.92;78.69
68450;SHT30;55434;39.570;2.652;2022-09-09T02:42:48;24.85;78.92
68450;SHT30;55434;39.570;2.652;2022-09-09T02:45:19;24.85;78.98
68450;SHT30;55434;39.570;2.652;2022-09-09T02:47:58;24.95;78.78
68450;SHT30;55434;39.570;2.652;2022-09-09T02:50:34;25.12;78.36
68450;SHT30;55434;39.570;2.652;2022-09-09T02:53:26;25.03;78.31
68450;SHT30;55434;39.570;2.652;2022-09-09T02:56:18;24.99;78.38
68450;SHT30;55434;39.570;2.652;2022-09-09T02:58:46;24.96;78.67
68450;SHT30;55434;39.570;2.652;2022-09-09T03:01:13;24.99;78.80
68450;SHT30;55434;39.570;2.652;2022-09-09T03:03:39;24.91;78.66
68450;SHT30;55434;39.570;2.652;2022-09-09T03:06:09;24.91;78.95
68450;SHT30;55434;39.570;2.652;2022-09-09T03:08:37;24.88;79.04
68450;SHT30;55434;39.570;2.652;2022-09-09T03:11:03;24.88;79.11
68450;SHT30;55434;39.570;2.652;2022-09-09T03:13:29;24.91;79.16
68450;SHT30;55434;39.570;2.652;2022-09-09T03:15:55;24.96;78.99
68450;SHT30;55434;39.570;2.652;2022-09-09T03:18:21;24.98;79.07
68450;SHT30;55434;39.570;2.652;2022-09-09T03:20:48;24.99;79.01
68450;SHT30;55434;39.570;2.652;2022-09-09T03:23:15;25.03;78.90
68450;SHT30;55434;39.570;2.652;2022-09-09T03:25:46;25.06;78.84
68450;SHT30;55434;39.570;2.652;2022-09-09T03:28:13;25.09;78.81
68450;SHT30;55434;39.570;2.652;2022-09-09T03:30:39;25.10;78.72
68450;SHT30;55434;39.570;2.652;2022-09-09T03:33:05;25.10;78.58
68450;SHT30;55434;39.570;2.652;2022-09-09T03:35:30;25.09;78.55
68450;SHT30;55434;39.570;2.652;2022-09-09T03:37:56;25.12;78.70
68450;SHT30;55434;39.570;2.652;2022-09-09T03:40:22;25.13;78.55
68450;SHT30;55434;39.570;2.652;2022-09-09T03:42:48;25.15;78.49
68450;SHT30;55434;39.570;2.652;2022-09-09T03:45:14;25.13;78.54
68450;SHT30;55434;39.570;2.652;2022-09-09T03:47:40;25.13;78.55
68450;SHT30;55434;39.570;2.652;2022-09-09T03:50:07;25.15;78.51
68450;SHT30;55434;39.570;2.652;2022-09-09T03:52:39;25.15;78.63
68450;SHT30;55434;39.570;2.652;2022-09-09T03:55:06;25.18;78.51
68450;SHT30;55434;39.570;2.652;2022-09-09T03:57:33;25.22;78.65
68450;SHT30;55434;39.570;2.652;2022-09-09T04:00:04;25.24;78.62
68450;SHT30;55434;39.570;2.652;2022-09-09T04:02:32;25.26;78.75
68450;SHT30;55434;39.570;2.652;2022-09-09T04:04:58;25.24;78.96
68450;SHT30;55434;39.570;2.652;2022-09-09T04:07:25;25.29;78.90
68450;SHT30;55434;39.570;2.652;2022-09-09T04:09:52;25.24;79.22
68450;SHT30;55434;39.570;2.652;2022-09-09T04:12:20;25.22;79.04
68450;SHT30;55434;39.570;2.652;2022-09-09T04:14:46;25.20;79.20
68450;SHT30;55434;39.570;2.652;2022-09-09T04:17:12;25.20;79.06
68450;SHT30;55434;39.570;2.652;2022-09-09T04:19:38;25.18;79.14
68450;SHT30;55434;39.570;2.652;2022-09-09T04:22:03;25.18;79.04
68450;SHT30;55434;39.570;2.652;2022-09-09T04:24:29;25.18;79.03
68450;SHT30;55434;39.570;2.652;2022-09-09T04:26:55;25.20;78.76
68450;SHT30;55434;39.570;2.652;2022-09-09T04:29:21;25.16;78.73
68450;SHT30;55434;39.570;2.652;2022-09-09T04:31:46;25.15;78.82
68450;SHT30;55434;39.570;2.652;2022-09-09T04:34:12;25.20;78.54
68450;SHT30;55434;39.570;2.652;2022-09-09T04:36:38;25.19;78.48
68450;SHT30;55434;39.570;2.652;2022-09-09T04:39:05;25.12;78.52
68450;SHT30;55434;39.570;2.652;2022-09-09T04:41:31;25.00;78.99
68450;SHT30;55434;39.570;2.652;2022-09-09T04:43:57;25.09;78.74
68450;SHT30;55434;39.570;2.652;2022-09-09T04:46:24;25.06;78.77
68450;SHT30;55434;39.570;2.652;2022-09-09T04:48:50;24.99;79.14
68450;SHT30;55434;39.570;2.652;2022-09-09T04:51:17;24.95;79.04
68450;SHT30;55434;39.570;2.652;2022-09-09T04:53:44;25.00;78.90
68450;SHT30;55434;39.570;2.652;2022-09-09T04:56:13;24.98;78.90
68450;SHT30;55434;39.570;2.652;2022-09-09T04:58:40;24.86;79.28
68450;SHT30;55434;39.570;2.652;2022-09-09T05:01:14;24.78;79.56
68450;SHT30;55434;39.570;2.652;2022-09-09T05:03:40;24.75;79.72
68450;SHT30;55434;39.570;2.652;2022-09-09T05:06:11;24.69;79.79
68450;SHT30;55434;39.570;2.652;2022-09-09T05:08:39;24.72;79.71
68450;SHT30;55434;39.570;2.652;2022-09-09T05:13:41;24.76;79.96
68450;SHT30;55434;39.570;2.652;2022-09-09T05:16:07;24.72;79.74
68450;SHT30;55434;39.570;2.652;2022-09-09T05:18:40;24.75;79.75
68450;SHT30;55434;39.570;2.652;2022-09-09T05:21:06;24.72;79.93
68450;SHT30;55434;39.570;2.652;2022-09-09T05:23:33;24.68;80.04
68450;SHT30;55434;39.570;2.652;2022-09-09T05:26:00;24.67;80.14
68450;SHT30;55434;39.570;2.652;2022-09-09T05:28:26;24.71;80.04
68450;SHT30;55434;39.570;2.652;2022-09-09T05:31:04;24.76;79.86
68450;SHT30;55434;39.570;2.652;2022-09-09T05:33:31;24.73;79.82
68450;SHT30;55434;39.570;2.652;2022-09-09T05:36:09;24.78;79.78
68450;SHT30;55434;39.570;2.652;2022-09-09T05:38:38;24.85;79.50
68450;SHT30;55434;39.570;2.652;2022-09-09T05:41:05;24.93;79.25
68450;SHT30;55434;39.570;2.652;2022-09-09T05:43:31;24.98;79.21
68450;SHT30;55434;39.570;2.652;2022-09-09T05:46:08;25.00;79.11
68450;SHT30;55434;39.570;2.652;2022-09-09T05:48:39;25.05;79.08
68450;SHT30;55434;39.570;2.652;2022-09-09T05:51:07;25.08;79.14
68450;SHT30;55434;39.570;2.652;2022-09-09T05:53:34;25.06;79.05
68450;SHT30;55434;39.570;2.652;2022-09-09T05:56:05;25.16;78.56
68450;SHT30;55434;39.570;2.652;2022-09-09T05:58:32;25.16;78.59
68450;SHT30;55434;39.570;2.652;2022-09-09T06:01:08;25.15;78.78
68450;SHT30;55434;39.570;2.652;2022-09-09T06:03:36;25.16;78.68
68450;SHT30;55434;39.570;2.652;2022-09-09T06:06:05;25.18;78.73
68450;SHT30;55434;39.570;2.652;2022-09-09T06:08:34;25.18;78.88
68450;SHT30;55434;39.570;2.652;2022-09-09T06:11:07;25.19;79.07
68450;SHT30;55434;39.570;2.652;2022-09-09T06:13:33;25.18;79.30
68450;SHT30;55434;39.570;2.652;2022-09-09T06:16:00;25.20;79.29
68450;SHT30;55434;39.570;2.652;2022-09-09T06:18:26;25.23;79.08
68450;SHT30;55434;39.570;2.652;2022-09-09T06:20:54;25.32;78.62
68450;SHT30;55434;39.570;2.652;2022-09-09T06:23:20;25.42;78.54
68450;SHT30;55434;39.570;2.652;2022-09-09T06:26:32;25.46;78.55
68450;SHT30;55434;39.570;2.652;2022-09-09T06:28:59;25.66;77.69
68450;SHT30;55434;39.570;2.652;2022-09-09T06:31:27;25.64;77.81
68450;SHT30;55434;39.570;2.652;2022-09-09T06:33:56;25.78;77.44
68450;SHT30;55434;39.570;2.652;2022-09-09T06:36:33;25.84;77.25
68450;SHT30;55434;39.570;2.652;2022-09-09T06:39:00;25.90;77.17
68450;SHT30;55434;39.570;2.652;2022-09-09T06:41:30;25.95;76.96
68450;SHT30;55434;39.570;2.652;2022-09-09T06:43:56;26.11;76.55
68450;SHT30;55434;39.570;2.652;2022-09-09T06:46:26;26.28;76.12
68450;SHT30;55434;39.570;2.652;2022-09-09T06:48:54;26.34;76.24
68450;SHT30;55434;39.570;2.652;2022-09-09T06:51:22;26.46;75.62
68450;SHT30;55434;39.570;2.652;2022-09-09T06:53:53;26.60;75.17
68450;SHT30;55434;39.570;2.652;2022-09-09T06:56:27;26.63;75.48
68450;SHT30;55434;39.570;2.652;2022-09-09T06:58:57;26.52;76.24
68450;SHT30;55434;39.570;2.652;2022-09-09T07:01:34;26.46;76.61
68450;SHT30;55434;39.570;2.652;2022-09-09T07:04:04;26.42;76.62
68450;SHT30;55434;39.570;2.652;2022-09-09T07:06:38;26.39;76.92
68450;SHT30;55434;39.570;2.652;2022-09-09T07:09:06;26.41;77.02
68450;SHT30;55434;39.570;2.652;2022-09-09T07:11:43;26.52;76.89
68450;SHT30;55434;39.570;2.652;2022-09-09T07:14:12;26.68;76.32
68450;SHT30;55434;39.570;2.652;2022-09-09T07:16:41;26.87;75.67
68450;SHT30;55434;39.570;2.652;2022-09-09T07:19:07;26.99;75.52
68450;SHT30;55434;39.570;2.652;2022-09-09T07:21:33;27.11;75.04
68450;SHT30;55434;39.570;2.652;2022-09-09T07:23:59;27.20;75.67
68450;SHT30;55434;39.570;2.652;2022-09-09T07:26:28;27.14;76.67
68450;SHT30;55434;39.570;2.652;2022-09-09T07:28:54;27.22;76.50
68450;SHT30;55434;39.570;2.652;2022-09-09T07:31:31;27.23;77.21
68450;SHT30;55434;39.570;2.652;2022-09-09T07:33:59;27.20;78.12
68450;SHT30;55434;39.570;2.652;2022-09-09T07:36:30;27.20;77.19
68450;SHT30;55434;39.570;2.652;2022-09-09T07:39:00;27.20;77.19
68450;SHT30;55434;39.570;2.652;2022-09-09T07:41:38;27.30;76.87
68450;SHT30;55434;39.570;2.652;2022-09-09T07:44:09;27.33;76.34
68450;SHT30;55434;39.570;2.652;2022-09-09T07:46:37;27.37;76.13
68450;SHT30;55434;39.570;2.652;2022-09-09T07:49:04;27.41;75.31
68450;SHT30;55434;39.570;2.652;2022-09-09T07:51:35;27.47;74.93
68450;SHT30;55434;39.570;2.652;2022-09-09T07:54:04;27.51;74.60
68450;SHT30;55434;39.570;2.652;2022-09-09T07:56:30;27.57;74.55
68450;SHT30;55434;39.570;2.652;2022-09-09T07:58:57;27.59;74.66
68450;SHT30;55434;39.570;2.652;2022-09-09T08:01:29;27.61;74.75
68450;SHT30;55434;39.570;2.652;2022-09-09T08:04:04;27.65;74.84
68450;SHT30;55434;39.570;2.652;2022-09-09T08:06:36;27.64;74.85
68450;SHT30;55434;39.570;2.652;2022-09-09T08:09:02;27.65;74.86
68450;SHT30;55434;39.570;2.652;2022-09-09T08:11:29;27.64;75.21
68450;SHT30;55434;39.570;2.652;2022-09-09T08:13:56;27.67;75.35
68450;SHT30;55434;39.570;2.652;2022-09-09T08:16:28;27.68;75.51
68450;SHT30;55434;39.570;2.652;2022-09-09T08:18:55;27.64;75.94
68450;SHT30;55434;39.570;2.652;2022-09-09T08:21:23;27.62;76.42
68450;SHT30;55434;39.570;2.652;2022-09-09T08:23:51;27.57;77.20
68450;SHT30;55434;39.570;2.652;2022-09-09T08:26:21;27.62;76.73
68450;SHT30;55434;39.570;2.652;2022-09-09T08:28:50;27.61;77.34
68450;SHT30;55434;39.570;2.652;2022-09-09T08:31:22;27.69;77.27
68450;SHT30;55434;39.570;2.652;2022-09-09T08:33:48;27.74;77.06
68450;SHT30;55434;39.570;2.652;2022-09-09T08:36:16;27.78;77.29
68450;SHT30;55434;39.570;2.652;2022-09-09T08:38:53;27.80;77.42
68450;SHT30;55434;39.570;2.652;2022-09-09T08:41:49;27.91;77.24
68450;SHT30;55434;39.570;2.652;2022-09-09T08:47:42;27.99;77.69
68450;SHT30;55434;39.570;2.652;2022-09-09T08:50:26;28.15;76.93
68450;SHT30;55434;39.570;2.652;2022-09-09T08:53:01;28.15;76.97
68450;SHT30;55434;39.570;2.652;2022-09-09T08:58:45;28.22;77.20
68450;SHT30;55434;39.570;2.652;2022-09-09T09:07:06;28.38;77.13
68450;SHT30;55434;39.570;2.652;2022-09-09T09:09:44;28.47;76.56
68450;SHT30;55434;39.570;2.652;2022-09-09T09:12:23;28.47;76.23
68450;SHT30;55434;39.570;2.652;2022-09-09T09:14:52;28.49;76.11
68450;SHT30;55434;39.570;2.652;2022-09-09T09:17:37;28.55;75.96
68450;SHT30;55434;39.570;2.652;2022-09-09T09:20:12;28.56;75.74
68450;SHT30;55434;39.570;2.652;2022-09-09T09:22:50;28.60;76.12
68450;SHT30;55434;39.570;2.652;2022-09-09T09:25:27;28.59;76.12
68450;SHT30;55434;39.570;2.652;2022-09-09T09:28:22;28.64;75.41
68450;SHT30;55434;39.570;2.652;2022-09-09T09:30:55;28.70;74.98
68450;SHT30;55434;39.570;2.652;2022-09-09T09:33:27;28.71;74.46
68450;SHT30;55434;39.570;2.652;2022-09-09T09:35:57;28.83;74.11
68450;SHT30;55434;39.570;2.652;2022-09-09T09:38:28;28.86;73.94
68450;SHT30;55434;39.570;2.652;2022-09-09T09:40:57;28.87;73.72
68450;SHT30;55434;39.570;2.652;2022-09-09T09:43:31;28.89;73.03
68450;SHT30;55434;39.570;2.652;2022-09-09T09:45:59;29.08;72.23
68450;SHT30;55434;39.570;2.652;2022-09-09T09:48:26;29.11;71.97
68450;SHT30;55434;39.570;2.652;2022-09-09T09:50:55;29.15;71.70
68450;SHT30;55434;39.570;2.652;2022-09-09T09:53:31;29.28;70.88
68450;SHT30;55434;39.570;2.652;2022-09-09T09:56:11;29.39;70.24
68450;SHT30;55434;39.570;2.652;2022-09-09T09:58:50;29.54;69.76
68450;SHT30;55434;39.570;2.652;2022-09-09T10:01:35;29.79;68.72
68450;SHT30;55434;39.570;2.652;2022-09-09T10:04:21;29.83;68.35
68450;SHT30;55434;39.570;2.652;2022-09-09T10:06:51;29.81;68.67
68450;SHT30;55434;39.570;2.652;2022-09-09T10:09:24;29.98;68.58
68450;SHT30;55434;39.570;2.652;2022-09-09T10:22:39;30.27;66.81
68450;SHT30;55434;39.570;2.652;2022-09-09T10:30:29;30.59;65.78
68450;SHT30;55434;39.570;2.652;2022-09-09T10:33:13;30.50;66.18
68450;SHT30;55434;39.570;2.652;2022-09-09T10:38:30;32.98;57.85
68450;SHT30;55434;39.570;2.652;2022-09-09T10:41:11;33.65;56.57
68450;SHT30;55434;39.570;2.652;2022-09-09T10:52:32;35.10;52.70
68450;SHT30;55434;39.570;2.652;2022-09-09T10:57:36;35.28;52.08
68450;SHT30;55434;39.570;2.652;2022-09-09T11:00:10;35.00;52.58
68450;SHT30;55434;39.570;2.652;2022-09-09T11:02:41;34.94;52.89
68450;SHT30;55434;39.570;2.652;2022-09-09T11:05:36;34.95;51.62
68450;SHT30;55434;39.570;2.652;2022-09-09T11:08:26;35.28;51.39
68450;SHT30;55434;39.570;2.652;2022-09-09T11:11:24;35.06;51.60
68450;SHT30;55434;39.570;2.652;2022-09-09T11:16:42;35.12;52.02
68450;SHT30;55434;39.570;2.652;2022-09-09T11:19:30;35.33;49.71
68450;SHT30;55434;39.570;2.652;2022-09-09T11:27:37;35.51;49.88
68450;SHT30;55434;39.570;2.652;2022-09-09T11:30:20;35.47;50.91
68450;SHT30;55434;39.570;2.652;2022-09-09T11:33:11;35.33;50.84
68450;SHT30;55434;39.570;2.652;2022-09-09T11:41:07;35.84;49.78
68450;SHT30;55434;39.570;2.652;2022-09-09T11:43:49;35.51;50.52
68450;SHT30;55434;39.570;2.652;2022-09-09T11:46:39;35.12;51.48
68450;SHT30;55434;39.570;2.652;2022-09-09T11:49:28;35.56;50.47
68450;SHT30;55434;39.570;2.652;2022-09-09T11:51:53;35.39;51.23
68450;SHT30;55434;39.570;2.652;2022-09-09T11:54:31;35.22;51.27
68450;SHT30;55434;39.570;2.652;2022-09-09T11:56:58;35.38;51.15
68450;SHT30;55434;39.570;2.652;2022-09-09T11:59:27;35.49;50.02
68450;SHT30;55434;39.570;2.652;2022-09-09T12:02:13;35.80;48.22
68450;SHT30;55434;39.570;2.652;2022-09-09T12:05:09;35.66;48.08
68450;SHT30;55434;39.570;2.652;2022-09-09T12:07:53;35.96;48.25
68450;SHT30;55434;39.570;2.652;2022-09-09T12:10:30;35.16;51.44
68450;SHT30;55434;39.570;2.652;2022-09-09T12:13:18;35.26;51.22
68450;SHT30;55434;39.570;2.652;2022-09-09T12:15:53;34.84;51.67
68450;SHT30;55434;39.570;2.652;2022-09-09T12:18:45;34.96;51.18
68450;SHT30;55434;39.570;2.652;2022-09-09T12:21:32;35.36;51.40
68450;SHT30;55434;39.570;2.652;2022-09-09T12:24:46;35.45;51.45
68450;SHT30;55434;39.570;2.652;2022-09-09T12:27:35;35.36;51.82
68450;SHT30;55434;39.570;2.652;2022-09-09T12:30:15;35.32;51.10
68450;SHT30;55434;39.570;2.652;2022-09-09T12:33:06;35.26;50.13
68450;SHT30;55434;39.570;2.652;2022-09-09T12:35:34;35.08;51.11
68450;SHT30;55434;39.570;2.652;2022-09-09T12:38:05;34.79;51.29
68450;SHT30;55434;39.570;2.652;2022-09-09T12:40:34;34.75;51.32
68450;SHT30;55434;39.570;2.652;2022-09-09T12:43:21;34.89;51.45
68450;SHT30;55434;39.570;2.652;2022-09-09T12:45:49;34.99;51.61
68450;SHT30;55434;39.570;2.652;2022-09-09T12:48:18;34.99;50.54
68450;SHT30;55434;39.570;2.652;2022-09-09T12:50:52;35.06;51.21
68450;SHT30;55434;39.570;2.652;2022-09-09T12:53:28;35.43;50.95
68450;SHT30;55434;39.570;2.652;2022-09-09T12:56:04;35.38;50.48
68450;SHT30;55434;39.570;2.652;2022-09-09T12:58:37;35.51;49.23
68450;SHT30;55434;39.570;2.652;2022-09-09T13:01:05;35.20;47.89
68450;SHT30;55434;39.570;2.652;2022-09-09T13:03:32;34.88;49.74
68450;SHT30;55434;39.570;2.652;2022-09-09T13:06:11;35.29;49.28
68450;SHT30;55434;39.570;2.652;2022-09-09T13:08:40;35.32;49.32
68450;SHT30;55434;39.570;2.652;2022-09-09T13:11:13;35.18;50.20
68450;SHT30;55434;39.570;2.652;2022-09-09T13:13:43;35.12;50.67
68450;SHT30;55434;39.570;2.652;2022-09-09T13:16:30;34.81;50.96
68450;SHT30;55434;39.570;2.652;2022-09-09T13:19:01;35.30;49.30
68450;SHT30;55434;39.570;2.652;2022-09-09T13:21:36;35.00;50.54
68450;SHT30;55434;39.570;2.652;2022-09-09T13:24:04;35.47;49.75
68450;SHT30;55434;39.570;2.652;2022-09-09T13:26:33;34.98;50.11
68450;SHT30;55434;39.570;2.652;2022-09-09T13:29:17;34.84;50.59
68450;SHT30;55434;39.570;2.652;2022-09-09T13:31:45;34.54;51.46
68450;SHT30;55434;39.570;2.652;2022-09-09T13:34:32;34.81;50.56
68450;SHT30;55434;39.570;2.652;2022-09-09T13:37:06;34.96;50.00
68450;SHT30;55434;39.570;2.652;2022-09-09T13:43:42;34.67;51.24
68450;SHT30;55434;39.570;2.652;2022-09-09T13:56:35;33.35;55.19
68450;SHT30;55434;39.570;2.652;2022-09-09T13:59:16;33.59;53.61
68450;SHT30;55434;39.570;2.652;2022-09-09T14:01:42;33.39;54.11
68450;SHT30;55434;39.570;2.652;2022-09-09T14:04:08;33.23;54.35
68450;SHT30;55434;39.570;2.652;2022-09-09T14:06:35;33.11;54.87
68450;SHT30;55434;39.570;2.652;2022-09-09T14:09:04;33.06;54.82
68450;SHT30;55434;39.570;2.652;2022-09-09T14:11:33;33.21;54.09
68450;SHT30;55434;39.570;2.652;2022-09-09T14:13:59;33.06;54.59
68450;SHT30;55434;39.570;2.652;2022-09-09T14:16:26;33.14;54.81
68450;SHT30;55434;39.570;2.652;2022-09-09T14:18:53;33.05;54.44
68450;SHT30;55434;39.570;2.652;2022-09-09T14:21:18;33.02;54.60
68450;SHT30;55434;39.570;2.652;2022-09-09T14:23:44;33.21;54.35
68450;SHT30;55434;39.570;2.652;2022-09-09T14:26:10;33.25;54.67
68450;SHT30;55434;39.570;2.652;2022-09-09T14:28:36;33.38;54.16
68450;SHT30;55434;39.570;2.652;2022-09-09T14:31:03;33.90;54.44
68450;SHT30;55434;39.570;2.652;2022-09-09T14:33:33;34.13;52.97
68450;SHT30;55434;39.570;2.652;2022-09-09T14:36:02;34.44;50.98
68450;SHT30;55434;39.570;2.652;2022-09-09T14:38:29;34.69;50.74
68450;SHT30;55434;39.570;2.652;2022-09-09T14:40:55;34.95;49.57
68450;SHT30;55434;39.570;2.652;2022-09-09T14:43:21;35.49;48.47
68450;SHT30;55434;39.570;2.652;2022-09-09T14:45:47;35.87;47.32
68450;SHT30;55434;39.570;2.652;2022-09-09T14:48:17;35.72;47.34
68450;SHT30;55434;39.570;2.652;2022-09-09T14:50:43;35.56;47.99
68450;SHT30;55434;39.570;2.652;2022-09-09T14:53:09;35.74;47.59
68450;SHT30;55434;39.570;2.652;2022-09-09T14:55:36;35.74;46.83
68450;SHT30;55434;39.570;2.652;2022-09-09T14:58:09;35.25;46.67
68450;SHT30;55434;39.570;2.652;2022-09-09T15:00:44;34.41;48.44
68450;SHT30;55434;39.570;2.652;2022-09-09T15:03:10;34.45;48.83
68450;SHT30;55434;39.570;2.652;2022-09-09T15:05:36;33.97;49.97
68450;SHT30;55434;39.570;2.652;2022-09-09T15:08:05;33.38;50.83
68450;SHT30;55434;39.570;2.652;2022-09-09T15:10:31;33.09;51.91
68450;SHT30;55434;39.570;2.652;2022-09-09T15:13:06;32.96;52.81
68450;SHT30;55434;39.570;2.652;2022-09-09T15:15:41;32.71;52.90
68450;SHT30;55434;39.570;2.652;2022-09-09T15:20:48;33.06;52.43
68450;SHT30;55434;39.570;2.652;2022-09-09T15:23:14;33.15;52.45
68450;SHT30;55434;39.570;2.652;2022-09-09T15:25:53;33.01;52.88
68450;SHT30;55434;39.570;2.652;2022-09-09T15:28:20;32.71;54.04
68450;SHT30;55434;39.570;2.652;2022-09-09T15:30:50;32.55;54.15
68450;SHT30;55434;39.570;2.652;2022-09-09T15:33:23;32.61;54.48
68450;SHT30;55434;39.570;2.652;2022-09-09T15:35:54;32.36;55.84
68450;SHT30;55434;39.570;2.652;2022-09-09T15:38:19;32.14;57.06
68450;SHT30;55434;39.570;2.652;2022-09-09T15:40:53;31.98;57.79
68450;SHT30;55434;39.570;2.652;2022-09-09T15:43:20;31.82;58.40
68450;SHT30;55434;39.570;2.652;2022-09-09T15:45:49;31.62;58.83
68450;SHT30;55434;39.570;2.652;2022-09-09T15:48:17;31.45;59.90
68450;SHT30;55434;39.570;2.652;2022-09-09T15:50:49;31.41;60.51
68450;SHT30;55434;39.570;2.652;2022-09-09T15:53:28;31.42;61.05
68450;SHT30;55434;39.570;2.652;2022-09-09T15:55:57;31.61;59.83
68450;SHT30;55434;39.570;2.652;2022-09-09T15:58:23;31.46;60.81
68450;SHT30;55434;39.570;2.652;2022-09-09T16:00:48;31.34;60.78
68450;SHT30;55434;39.570;2.652;2022-09-09T16:03:32;31.10;62.29
68450;SHT30;55434;39.570;2.652;2022-09-09T16:05:59;31.10;61.91
68450;SHT30;55434;39.570;2.652;2022-09-09T16:08:31;31.22;62.12
68450;SHT30;55434;39.570;2.652;2022-09-09T16:11:11;31.42;61.16
68450;SHT30;55434;39.570;2.652;2022-09-09T16:13:39;31.89;59.87
68450;SHT30;55434;39.570;2.652;2022-09-09T16:16:06;31.56;60.12
68450;SHT30;55434;39.570;2.652;2022-09-09T16:18:50;31.31;61.46
68450;SHT30;55434;39.570;2.652;2022-09-09T16:21:22;31.16;61.50
68450;SHT30;55434;39.570;2.652;2022-09-09T16:23:50;31.94;58.79
68450;SHT30;55434;39.570;2.652;2022-09-09T16:26:17;32.43;57.36
68450;SHT30;55434;39.570;2.652;2022-09-09T16:28:44;32.41;57.71
68450;SHT30;55434;39.570;2.652;2022-09-09T16:31:17;32.47;58.29
68450;SHT30;55434;39.570;2.652;2022-09-09T16:33:44;32.58;58.08
68450;SHT30;55434;39.570;2.652;2022-09-09T16:36:16;32.40;57.71
68450;SHT30;55434;39.570;2.652;2022-09-09T16:38:42;33.09;56.31
68450;SHT30;55434;39.570;2.652;2022-09-09T16:41:09;33.42;55.57
68450;SHT30;55434;39.570;2.652;2022-09-09T16:43:36;33.35;55.41
68450;SHT30;55434;39.570;2.652;2022-09-09T16:46:19;33.81;54.52
68450;SHT30;55434;39.570;2.652;2022-09-09T16:48:46;33.89;54.18
68450;SHT30;55434;39.570;2.652;2022-09-09T16:51:23;34.10;53.41
68450;SHT30;55434;39.570;2.652;2022-09-09T16:53:50;34.03;53.46
68450;SHT30;55434;39.570;2.652;2022-09-09T16:56:21;33.19;55.23
68450;SHT30;55434;39.570;2.652;2022-09-09T16:58:55;32.54;55.99
68450;SHT30;55434;39.570;2.652;2022-09-09T17:01:26;32.27;57.51
68450;SHT30;55434;39.570;2.652;2022-09-09T17:03:56;32.06;58.03
68450;SHT30;55434;39.570;2.652;2022-09-09T17:06:22;32.40;56.17
68450;SHT30;55434;39.570;2.652;2022-09-09T17:08:58;33.38;54.42
68450;SHT30;55434;39.570;2.652;2022-09-09T17:11:25;33.55;53.85
68450;SHT30;55434;39.570;2.652;2022-09-09T17:13:54;33.05;55.63
68450;SHT30;55434;39.570;2.652;2022-09-09T17:16:22;32.19;57.92
68450;SHT30;55434;39.570;2.652;2022-09-09T17:18:49;31.08;61.48
68450;SHT30;55434;39.570;2.652;2022-09-09T17:21:18;30.85;61.97
68450;SHT30;55434;39.570;2.652;2022-09-09T17:23:44;30.61;62.52
68450;SHT30;55434;39.570;2.652;2022-09-09T17:26:13;30.45;63.53
68450;SHT30;55434;39.570;2.652;2022-09-09T17:28:44;30.39;64.07
68450;SHT30;55434;39.570;2.652;2022-09-09T17:31:13;30.24;65.10
68450;SHT30;55434;39.570;2.652;2022-09-09T17:33:41;30.14;65.68
68450;SHT30;55434;39.570;2.652;2022-09-09T17:36:23;30.10;66.31
68450;SHT30;55434;39.570;2.652;2022-09-09T17:38:49;30.22;65.81
68450;SHT30;55434;39.570;2.652;2022-09-09T17:41:27;30.00;66.36
68450;SHT30;55434;39.570;2.652;2022-09-09T17:43:56;29.86;66.74
68450;SHT30;55434;39.570;2.652;2022-09-09T17:46:33;29.85;66.84
68450;SHT30;55434;39.570;2.652;2022-09-09T17:49:07;29.79;66.80